Alpena, Michigan
Current Conditions -  °F | °C
As of 8:54 AM on Tuesday 27 Jan 2015 (Local Time) from KAPN Reporting Station
Clear Clear  
Wind Chill: -4°   Ceiling: Unl
Heat Index:   Visibility: 10mi
Dew Point:   Wind: 8mph
Humidity: 80%   Direction: 10°N
Pressure: 30.18"   Gusts: NA
Location:  45.06°N, 83.44°W
Report Text: KAPN 271354Z AUTO 01007KT 10SM CLR M13/M16 A3018 RMK AO2 SLP237 T11331161
Loading
Personal Weather Stations






























Interactive Weather Map New forecast layout! Learn more

10-Day Weather Forecast

Advertisements
Track Severe Weather on mobile